Arak, Iran

11:59 AM IRST on October 24, 2014 (GMT +0330)
MALAYER AIRPORT | Change Station
CLOSE
Current Station
Airport
Location: MALAYER AIRPORT,
Elevation: 5659 ft
Nearby Weather Stations

Elev 5659 ft 34.28 °N, 48.82 °E | Updated 29 minutes ago

Partly Cloudy
Partly Cloudy
64 °F
Feels Like 64 °F
N
0
Wind Variable Wind from North

Today
High -- | Low -- °F
--% Chance of Precip.
Yesterday
High -- | Low -- °F
Precip. -- in
6:22 AM 5:26 PM
New Moon, 0% visible
Pressure 30.21 in
Visibility 6.2 miles
Clouds Few 4000 ft
Dew Point 34 °F
Humidity 32%
Rainfall 0.00 in
Snow Depth Not available.
UV 6 out of 12
Pollen Not available.
Air Quality Not available.
Flu Activity Not available.
METAR OIHM 240800Z 00000KT 9999 FEW040 18/01 Q1023

More Conditions Fewer Conditions

Pressure 30.21 in
Visibility 6.2 miles
Clouds Few 4000 ft
Dew Point 34 °F
Humidity 32%
Rainfall 0.00 in
Snow Depth Not available.
UV 6 out of 12
Pollen Not available.
Air Quality Not available.
Flu Activity Not available.
METAR OIHM 240800Z 00000KT 9999 FEW040 18/01 Q1023

More Conditions Fewer Conditions

10-Day Weather Forecast

Almanac

Astronomy

Oct. 24, 2014 Rise Set
Actual Time 6:22 AM IRST 5:26 PM IRST
Civil Twilight 5:57 AM IRST 5:51 PM IRST
Nautical Twilight 5:28 AM IRST 6:21 PM IRST
Astronomical Twilight 4:58 AM IRST 6:50 PM IRST
Moon 6:38 AM IRST 5:52 PM IRST
Length of Visible Light 11h 54m
Length of Day
11h 03m
Tomorrow will be 1m 58s shorter.
New Moon, 0% of the Moon is Illuminated
Today
New Moon
Oct 30
First Quarter
Nov 6
Full
Nov 14
Last Quarter
Nov 22
New

Yesterday's Extremes

Country Highs Country Lows

Community

WunderPhotos

Upload Photos

1,764,511 photos uploaded!

WunderBlogs® & News

Nearby

Snow Depth

Not available.

Earthquake Activity

City Distance Mag. Time & Date
No recent earthquake activity has been reported nearby.
Minimum magnitude displayed is 2.5.

Coastal Water Temperatures

Place Temperature
No Stations Reporting

Nearby Weather Stations